createdAt,value
2023-06-17T00:01:10.208Z,18.05
2023-06-17T00:03:50.426Z,18.01
2023-06-17T00:06:30.621Z,17.95
2023-06-17T00:09:10.788Z,17.91
2023-06-17T00:11:52.556Z,17.86
2023-06-17T00:14:33.745Z,17.82
2023-06-17T00:17:15.345Z,17.79
2023-06-17T00:19:57.911Z,17.74
2023-06-17T00:22:40.396Z,17.68
2023-06-17T00:25:20.795Z,17.66
2023-06-17T00:28:00.922Z,17.62
2023-06-17T00:30:41.393Z,17.59
2023-06-17T00:33:21.514Z,17.54
2023-06-17T00:36:04.256Z,17.51
2023-06-17T00:38:44.363Z,17.46
2023-06-17T00:41:24.612Z,17.41
2023-06-17T00:44:04.976Z,17.36
2023-06-17T00:46:51.557Z,17.30
2023-06-17T00:49:37.922Z,17.22
2023-06-17T00:52:39.553Z,17.14
2023-06-17T00:55:19.350Z,17.03
2023-06-17T00:58:01.722Z,16.95
2023-06-17T01:00:42.241Z,16.88
2023-06-17T01:03:24.157Z,16.84
2023-06-17T01:06:21.072Z,16.80
2023-06-17T01:09:06.527Z,16.76
2023-06-17T01:11:52.747Z,16.74
2023-06-17T01:14:35.216Z,16.67
2023-06-17T01:17:19.215Z,16.63
2023-06-17T01:20:00.156Z,16.59
2023-06-17T01:22:41.749Z,16.54
2023-06-17T01:25:30.257Z,16.50
2023-06-17T01:28:20.558Z,16.44
2023-06-17T01:31:00.856Z,16.42
2023-06-17T01:33:46.508Z,16.40
2023-06-17T01:36:38.781Z,16.37
2023-06-17T01:39:24.883Z,16.33
2023-06-17T01:42:15.834Z,16.31
2023-06-17T01:44:57.959Z,16.27
2023-06-17T01:47:38.673Z,16.23
2023-06-17T01:50:21.060Z,16.21
2023-06-17T01:53:01.826Z,16.17
2023-06-17T01:55:42.037Z,16.12
2023-06-17T01:58:22.416Z,16.07
2023-06-17T02:01:02.579Z,16.02
2023-06-17T02:03:43.675Z,15.98
2023-06-17T02:06:24.270Z,15.95
2023-06-17T02:09:05.361Z,15.90
2023-06-17T02:11:46.160Z,15.86
2023-06-17T02:14:27.392Z,15.80
2023-06-17T02:17:09.576Z,15.76
2023-06-17T02:19:50.860Z,15.72
2023-06-17T02:22:31.762Z,15.67
2023-06-17T02:25:11.959Z,15.66
2023-06-17T02:27:52.805Z,15.63
2023-06-17T02:30:35.837Z,15.60
2023-06-17T02:33:19.218Z,15.57
2023-06-17T02:36:00.867Z,15.52
2023-06-17T02:38:41.737Z,15.49
2023-06-17T02:41:23.078Z,15.47
2023-06-17T02:44:03.453Z,15.44
2023-06-17T02:46:45.585Z,15.43
2023-06-17T02:49:25.764Z,15.39
2023-06-17T02:52:06.522Z,15.37
2023-06-17T02:54:47.717Z,15.35
2023-06-17T02:57:32.988Z,15.31
2023-06-17T03:00:14.576Z,15.30
2023-06-17T03:02:56.445Z,15.22
2023-06-17T03:05:38.773Z,15.14
2023-06-17T03:08:19.989Z,15.05
2023-06-17T03:11:01.240Z,14.96
2023-06-17T03:13:43.189Z,14.90
2023-06-17T03:16:34.577Z,14.90
2023-06-17T03:19:16.758Z,14.92
2023-06-17T03:21:58.757Z,14.97
2023-06-17T03:24:41.070Z,14.97
2023-06-17T03:27:23.953Z,14.96
2023-06-17T03:30:05.797Z,14.94
2023-06-17T03:32:46.139Z,14.96
2023-06-17T03:35:26.923Z,14.93
2023-06-17T03:38:07.450Z,14.86
2023-06-17T03:40:48.270Z,14.82
2023-06-17T03:43:28.938Z,14.70
2023-06-17T03:46:10.489Z,14.68
2023-06-17T03:48:50.998Z,14.64
2023-06-17T03:51:32.427Z,14.62
2023-06-17T03:54:13.193Z,14.65
2023-06-17T03:56:53.703Z,14.69
2023-06-17T03:59:34.886Z,14.71
2023-06-17T04:02:17.200Z,14.76
2023-06-17T04:04:57.820Z,14.81
2023-06-17T04:07:41.115Z,14.85
2023-06-17T04:10:21.663Z,14.90
2023-06-17T04:13:02.399Z,14.92
2023-06-17T04:15:43.582Z,14.98
2023-06-17T04:18:25.599Z,15.02
2023-06-17T04:21:06.609Z,15.07
2023-06-17T04:23:46.847Z,15.11
2023-06-17T04:26:29.038Z,15.16
2023-06-17T04:29:09.655Z,15.20
2023-06-17T04:31:51.023Z,15.25
2023-06-17T04:34:32.336Z,15.30
2023-06-17T04:37:13.848Z,15.31
2023-06-17T04:39:54.317Z,15.37
2023-06-17T04:42:34.922Z,15.40
2023-06-17T04:45:18.519Z,15.53
2023-06-17T04:48:07.394Z,15.65
2023-06-17T04:50:49.495Z,15.79
2023-06-17T04:53:29.908Z,15.90
2023-06-17T04:56:11.142Z,16.04
2023-06-17T04:58:52.640Z,16.16
2023-06-17T05:01:32.882Z,16.27
2023-06-17T05:04:13.035Z,16.40
2023-06-17T05:06:53.284Z,16.53
2023-06-17T05:09:34.091Z,16.68
2023-06-17T05:12:14.543Z,16.81
2023-06-17T05:14:56.141Z,16.95
2023-06-17T05:17:37.054Z,17.06
2023-06-17T05:20:17.566Z,17.15
2023-06-17T05:22:58.776Z,17.25
2023-06-17T05:25:39.438Z,17.40
2023-06-17T05:28:19.677Z,17.55
2023-06-17T05:31:01.458Z,17.73
2023-06-17T05:33:42.592Z,17.91
2023-06-17T05:36:25.549Z,18.08
2023-06-17T05:39:07.030Z,18.22
2023-06-17T05:41:48.404Z,18.34
2023-06-17T05:44:31.749Z,18.46
2023-06-17T05:47:13.138Z,18.56
2023-06-17T05:49:53.347Z,18.68
2023-06-17T05:52:35.114Z,18.75
2023-06-17T05:55:15.864Z,18.85
2023-06-17T05:57:56.553Z,18.99
2023-06-17T06:00:36.928Z,19.11
2023-06-17T06:03:17.198Z,19.23
2023-06-17T06:05:57.563Z,19.36
2023-06-17T06:08:38.404Z,19.44
2023-06-17T06:11:20.517Z,19.52
2023-06-17T06:14:01.361Z,19.63
2023-06-17T06:16:41.802Z,19.70
2023-06-17T06:19:22.489Z,19.81
2023-06-17T06:22:02.875Z,19.89
2023-06-17T06:24:44.626Z,19.97
2023-06-17T06:27:25.509Z,20.10
2023-06-17T06:30:07.852Z,20.24
2023-06-17T06:32:53.057Z,20.36
2023-06-17T06:35:34.407Z,20.45
2023-06-17T06:38:16.079Z,20.57
2023-06-17T06:40:56.528Z,20.71
2023-06-17T06:43:37.008Z,20.86
2023-06-17T06:46:27.142Z,20.99
2023-06-17T06:49:07.828Z,21.06
2023-06-17T06:51:49.262Z,21.20
2023-06-17T06:54:29.535Z,21.35
2023-06-17T06:57:10.070Z,21.46
2023-06-17T06:59:52.777Z,21.58
2023-06-17T07:02:33.560Z,21.73
2023-06-17T07:05:14.499Z,21.91
2023-06-17T07:08:02.010Z,22.00
2023-06-17T07:10:42.673Z,22.07
2023-06-17T07:13:24.515Z,22.14
2023-06-17T07:16:06.829Z,22.28
2023-06-17T07:18:48.097Z,22.48
2023-06-17T07:21:28.907Z,22.69
2023-06-17T07:24:09.270Z,22.90
2023-06-17T07:26:50.252Z,23.05
2023-06-17T07:29:31.480Z,23.11
2023-06-17T07:32:12.368Z,23.30
2023-06-17T07:34:57.299Z,23.55
2023-06-17T07:37:38.595Z,23.76
2023-06-17T07:40:20.557Z,23.83
2023-06-17T07:43:01.584Z,23.84
2023-06-17T07:45:43.017Z,23.86
2023-06-17T07:48:24.957Z,23.91
2023-06-17T07:51:05.226Z,24.06
2023-06-17T07:53:45.425Z,24.23
2023-06-17T07:56:28.668Z,24.35
2023-06-17T07:59:10.021Z,24.44
2023-06-17T08:01:50.729Z,24.51
2023-06-17T08:04:31.734Z,24.66
2023-06-17T08:07:12.383Z,24.77
2023-06-17T08:09:53.007Z,24.92
2023-06-17T08:12:33.361Z,25.17
2023-06-17T08:15:13.691Z,25.38
2023-06-17T08:17:54.307Z,25.45
2023-06-17T08:20:34.929Z,25.52
2023-06-17T08:23:15.976Z,25.60
2023-06-17T08:25:57.755Z,25.61
2023-06-17T08:28:39.314Z,25.75
2023-06-17T08:31:20.686Z,25.81
2023-06-17T08:34:00.931Z,25.94
2023-06-17T08:36:51.062Z,26.18
2023-06-17T08:39:32.985Z,26.37
2023-06-17T08:42:13.171Z,26.54
2023-06-17T08:44:58.461Z,26.73
2023-06-17T08:47:38.969Z,26.87
2023-06-17T08:50:20.028Z,26.89
2023-06-17T08:53:00.804Z,26.90
2023-06-17T08:55:41.392Z,27.06
2023-06-17T08:58:22.326Z,27.29
2023-06-17T09:01:03.535Z,27.44
2023-06-17T09:03:44.826Z,27.43
2023-06-17T09:06:29.239Z,27.47
2023-06-17T09:09:09.280Z,27.51
2023-06-17T09:11:53.756Z,27.61
2023-06-17T09:14:35.297Z,27.65
2023-06-17T09:17:33.736Z,27.67
2023-06-17T09:20:17.005Z,27.63
2023-06-17T09:22:57.292Z,27.64
2023-06-17T09:25:38.599Z,27.66
2023-06-17T09:28:18.831Z,27.67
2023-06-17T09:31:00.769Z,27.70
2023-06-17T09:33:45.972Z,27.78
2023-06-17T09:36:27.247Z,27.92
2023-06-17T09:39:10.671Z,28.13
2023-06-17T09:41:51.628Z,28.34
2023-06-17T09:44:32.087Z,28.43
2023-06-17T09:47:13.078Z,28.44
2023-06-17T09:49:53.556Z,28.52
2023-06-17T09:52:36.497Z,28.65
2023-06-17T09:55:17.382Z,28.78
2023-06-17T09:58:02.992Z,28.83
2023-06-17T10:00:46.613Z,28.93
2023-06-17T10:03:28.978Z,28.96
2023-06-17T10:06:17.517Z,29.07
2023-06-17T10:08:58.971Z,29.24
2023-06-17T10:11:46.300Z,29.20
2023-06-17T10:14:32.883Z,29.21
2023-06-17T10:17:13.967Z,29.14
2023-06-17T10:19:56.204Z,29.18
2023-06-17T10:22:39.431Z,29.29
2023-06-17T10:25:20.178Z,29.33
2023-06-17T10:28:04.420Z,29.40
2023-06-17T10:30:46.341Z,29.31
2023-06-17T10:33:28.799Z,29.26
2023-06-17T10:36:11.378Z,29.22
2023-06-17T10:39:08.186Z,29.13
2023-06-17T10:41:50.038Z,29.21
2023-06-17T10:44:36.958Z,29.50
2023-06-17T10:47:22.509Z,29.63
2023-06-17T10:50:06.445Z,29.56
2023-06-17T10:52:46.981Z,29.58
2023-06-17T10:55:27.358Z,29.70
2023-06-17T10:58:08.452Z,29.75
2023-06-17T11:01:08.798Z,29.80
2023-06-17T11:03:49.438Z,29.79
2023-06-17T11:06:33.450Z,29.81
2023-06-17T11:09:13.484Z,29.76
2023-06-17T11:11:58.475Z,29.64
2023-06-17T11:14:40.822Z,29.67
2023-06-17T11:17:21.332Z,29.79
2023-06-17T11:20:01.595Z,29.80
2023-06-17T11:22:42.124Z,29.78
2023-06-17T11:25:35.985Z,29.76
2023-06-17T11:28:23.396Z,29.82
2023-06-17T11:31:04.729Z,29.85
2023-06-17T11:33:45.581Z,29.94
2023-06-17T11:36:27.303Z,30.05
2023-06-17T11:39:10.227Z,30.02
2023-06-17T11:42:01.149Z,30.06
2023-06-17T11:44:41.750Z,30.01
2023-06-17T11:47:34.871Z,30.04
2023-06-17T11:50:15.670Z,30.08
2023-06-17T11:52:59.977Z,30.18
2023-06-17T11:55:44.510Z,30.33
2023-06-17T11:58:26.794Z,30.46
2023-06-17T12:01:09.871Z,30.55
2023-06-17T12:03:50.445Z,30.53
2023-06-17T12:06:32.941Z,30.57
2023-06-17T12:09:15.438Z,30.62
2023-06-17T12:11:56.116Z,30.71
2023-06-17T12:14:38.684Z,30.75
2023-06-17T12:17:23.216Z,30.64
2023-06-17T12:20:03.899Z,30.56
2023-06-17T12:22:46.027Z,30.49
2023-06-17T12:25:26.351Z,30.50
2023-06-17T12:28:07.486Z,30.61
2023-06-17T12:30:47.998Z,30.77
2023-06-17T12:33:28.210Z,30.75
2023-06-17T12:36:08.880Z,30.74
2023-06-17T12:38:50.541Z,30.76
2023-06-17T12:41:32.602Z,30.81
2023-06-17T12:44:13.023Z,30.72
2023-06-17T12:46:54.601Z,30.65
2023-06-17T12:49:35.132Z,30.76
2023-06-17T12:52:15.682Z,30.74
2023-06-17T12:55:01.398Z,30.70
2023-06-17T12:57:41.737Z,30.70
2023-06-17T13:00:22.330Z,30.67
2023-06-17T13:03:03.651Z,30.66
2023-06-17T13:05:44.878Z,30.62
2023-06-17T13:08:25.450Z,30.75
2023-06-17T13:11:06.421Z,30.98
2023-06-17T13:13:46.717Z,31.18
2023-06-17T13:16:27.570Z,31.23
2023-06-17T13:19:08.921Z,31.13
2023-06-17T13:21:49.300Z,31.07
2023-06-17T13:24:29.567Z,31.03
2023-06-17T13:27:10.512Z,31.10
2023-06-17T13:29:51.319Z,31.20
2023-06-17T13:32:32.465Z,31.46
2023-06-17T13:35:13.468Z,31.55
2023-06-17T13:37:56.004Z,31.56
2023-06-17T13:40:36.626Z,31.53
2023-06-17T13:43:17.291Z,31.56
2023-06-17T13:45:58.084Z,31.65
2023-06-17T13:48:38.817Z,31.77
2023-06-17T13:51:19.285Z,31.81
2023-06-17T13:54:03.274Z,31.71
2023-06-17T13:56:43.822Z,31.61
2023-06-17T13:59:24.892Z,31.54
2023-06-17T14:02:06.033Z,31.60
2023-06-17T14:04:46.374Z,31.56
2023-06-17T14:07:26.759Z,31.59
2023-06-17T14:10:08.119Z,31.70
2023-06-17T14:12:48.989Z,31.82
2023-06-17T14:15:29.427Z,31.89
2023-06-17T14:18:09.736Z,31.76
2023-06-17T14:20:49.982Z,31.60
2023-06-17T14:23:30.408Z,31.56
2023-06-17T14:26:10.662Z,31.59
2023-06-17T14:28:51.052Z,31.73
2023-06-17T14:31:31.499Z,31.83
2023-06-17T14:34:12.155Z,31.78
2023-06-17T14:36:52.778Z,31.67
2023-06-17T14:39:32.816Z,31.57
2023-06-17T14:42:13.220Z,31.46
2023-06-17T14:44:53.674Z,31.40
2023-06-17T14:47:35.293Z,31.50
2023-06-17T14:50:16.039Z,31.54
2023-06-17T14:52:56.394Z,31.59
2023-06-17T14:55:36.703Z,31.63
2023-06-17T14:58:16.870Z,31.63
2023-06-17T15:00:57.004Z,31.52
2023-06-17T15:03:37.501Z,31.49
2023-06-17T15:06:18.416Z,31.49
2023-06-17T15:09:26.820Z,31.59
2023-06-17T15:12:12.551Z,31.72
2023-06-17T15:14:54.630Z,31.70
2023-06-17T15:17:35.441Z,31.71
2023-06-17T15:20:15.907Z,31.72
2023-06-17T15:22:56.291Z,31.65
2023-06-17T15:25:36.559Z,31.60
2023-06-17T15:28:16.810Z,31.45
2023-06-17T15:30:57.216Z,31.43
2023-06-17T15:33:37.585Z,31.44
2023-06-17T15:36:18.000Z,31.41
2023-06-17T15:39:20.987Z,31.32
2023-06-17T15:42:01.632Z,31.25
2023-06-17T15:44:41.973Z,31.14
2023-06-17T15:47:22.487Z,31.10
2023-06-17T15:50:04.170Z,31.06
2023-06-17T15:52:44.479Z,31.03
2023-06-17T15:55:24.817Z,30.97
2023-06-17T15:58:05.584Z,30.85
2023-06-17T16:00:46.009Z,30.79
2023-06-17T16:03:31.418Z,30.74
2023-06-17T16:06:12.078Z,30.66
2023-06-17T16:08:54.259Z,30.62
2023-06-17T16:11:34.816Z,30.59
2023-06-17T16:14:15.274Z,30.55
2023-06-17T16:16:55.674Z,30.55
2023-06-17T16:19:37.257Z,30.51
2023-06-17T16:22:17.613Z,30.51
2023-06-17T16:24:57.842Z,30.52
2023-06-17T16:27:38.119Z,30.45
2023-06-17T16:30:19.935Z,30.46
2023-06-17T16:33:01.879Z,30.47
2023-06-17T16:35:42.134Z,30.52
2023-06-17T16:38:22.826Z,30.51
2023-06-17T16:41:03.411Z,30.50
2023-06-17T16:43:44.166Z,30.41
2023-06-17T16:46:24.654Z,30.33
2023-06-17T16:49:05.051Z,30.33
2023-06-17T16:51:45.640Z,30.36
2023-06-17T16:54:26.111Z,30.34
2023-06-17T16:57:06.827Z,30.24
2023-06-17T16:59:48.115Z,30.12
2023-06-17T17:02:29.223Z,29.98
2023-06-17T17:05:09.654Z,29.94
2023-06-17T17:07:50.449Z,30.01
2023-06-17T17:10:31.014Z,30.03
2023-06-17T17:13:12.351Z,30.04
2023-06-17T17:15:53.057Z,30.02
2023-06-17T17:18:36.586Z,29.98
2023-06-17T17:21:20.644Z,29.88
2023-06-17T17:24:04.075Z,29.76
2023-06-17T17:26:46.104Z,29.69
2023-06-17T17:29:26.960Z,29.67
2023-06-17T17:32:07.938Z,29.64
2023-06-17T17:34:48.398Z,29.65
2023-06-17T17:37:28.704Z,29.60
2023-06-17T17:40:09.744Z,29.55
2023-06-17T17:42:50.453Z,29.48
2023-06-17T17:45:30.800Z,29.40
2023-06-17T17:48:11.277Z,29.39
2023-06-17T17:50:51.570Z,29.34
2023-06-17T17:53:32.052Z,29.30
2023-06-17T17:56:12.186Z,29.29
2023-06-17T17:58:52.484Z,29.25
2023-06-17T18:01:32.749Z,29.16
2023-06-17T18:04:13.185Z,29.09
2023-06-17T18:06:53.442Z,29.02
2023-06-17T18:09:34.019Z,28.95
2023-06-17T18:12:14.163Z,28.88
2023-06-17T18:14:54.498Z,28.83
2023-06-17T18:17:34.727Z,28.80
2023-06-17T18:20:15.141Z,28.76
2023-06-17T18:22:55.897Z,28.66
2023-06-17T18:25:36.608Z,28.63
2023-06-17T18:28:17.193Z,28.59
2023-06-17T18:30:57.517Z,28.52
2023-06-17T18:33:37.886Z,28.43
2023-06-17T18:36:18.423Z,28.33
2023-06-17T18:38:58.815Z,28.22
2023-06-17T18:41:43.039Z,28.14
2023-06-17T18:44:23.390Z,28.04
2023-06-17T18:47:04.280Z,27.97
2023-06-17T18:49:44.698Z,27.88
2023-06-17T18:52:24.845Z,27.78
2023-06-17T18:55:05.845Z,27.70
2023-06-17T18:57:46.559Z,27.67
2023-06-17T19:00:28.845Z,27.63
2023-06-17T19:03:09.265Z,27.59
2023-06-17T19:05:52.761Z,27.52
2023-06-17T19:08:33.407Z,27.46
2023-06-17T19:11:16.240Z,27.41
2023-06-17T19:13:56.899Z,27.32
2023-06-17T19:16:37.244Z,27.22
2023-06-17T19:19:17.621Z,27.05
2023-06-17T19:21:58.017Z,26.92
2023-06-17T19:24:38.326Z,26.77
2023-06-17T19:27:18.589Z,26.66
2023-06-17T19:30:01.128Z,26.60
2023-06-17T19:32:41.398Z,26.53
2023-06-17T19:35:21.626Z,26.48
2023-06-17T19:38:02.606Z,26.41
2023-06-17T19:40:43.284Z,26.34
2023-06-17T19:43:24.251Z,26.26
2023-06-17T19:46:04.952Z,26.16
2023-06-17T19:48:45.660Z,26.03
2023-06-17T19:51:26.123Z,25.93
2023-06-17T19:54:06.365Z,25.82
2023-06-17T19:56:46.578Z,25.71
2023-06-17T19:59:27.020Z,25.59
2023-06-17T20:02:07.719Z,25.48
2023-06-17T20:04:48.293Z,25.34
2023-06-17T20:07:28.444Z,25.22
2023-06-17T20:10:09.314Z,25.09
2023-06-17T20:12:49.496Z,24.97
2023-06-17T20:15:30.451Z,24.83
2023-06-17T20:18:11.220Z,24.73
2023-06-17T20:20:51.555Z,24.62
2023-06-17T20:23:31.820Z,24.48
2023-06-17T20:26:12.501Z,24.39
2023-06-17T20:28:54.196Z,24.30
2023-06-17T20:31:34.422Z,24.23
2023-06-17T20:34:14.606Z,24.15
2023-06-17T20:36:54.885Z,24.08
2023-06-17T20:39:35.227Z,23.99
2023-06-17T20:42:15.707Z,23.88
2023-06-17T20:44:56.682Z,23.76
2023-06-17T20:47:37.163Z,23.70
2023-06-17T20:50:17.474Z,23.65
2023-06-17T20:52:58.188Z,23.57
2023-06-17T20:55:38.396Z,23.53
2023-06-17T20:58:18.835Z,23.51
2023-06-17T21:00:59.310Z,23.51
2023-06-17T21:03:39.610Z,23.45
2023-06-17T21:06:19.968Z,23.42
2023-06-17T21:09:00.259Z,23.42
2023-06-17T21:11:41.003Z,23.44
2023-06-17T21:14:21.248Z,23.46
2023-06-17T21:17:01.825Z,23.50
2023-06-17T21:19:42.288Z,23.52
2023-06-17T21:22:22.468Z,23.53
2023-06-17T21:25:02.555Z,23.50
2023-06-17T21:27:42.809Z,23.46
2023-06-17T21:30:23.391Z,23.42
2023-06-17T21:33:04.013Z,23.39
2023-06-17T21:35:44.175Z,23.35
2023-06-17T21:38:24.699Z,23.29
2023-06-17T21:41:04.990Z,23.27
2023-06-17T21:43:45.225Z,23.24
2023-06-17T21:46:32.114Z,23.22
2023-06-17T21:49:12.514Z,23.18
2023-06-17T21:51:52.769Z,23.14
2023-06-17T21:54:33.480Z,23.12
2023-06-17T21:57:14.002Z,23.09
2023-06-17T21:59:54.193Z,23.10
2023-06-17T22:02:34.474Z,23.10
2023-06-17T22:05:14.859Z,23.12
2023-06-17T22:07:55.041Z,23.12
2023-06-17T22:10:35.355Z,23.13
2023-06-17T22:13:15.889Z,23.13
2023-06-17T22:15:56.955Z,23.14
2023-06-17T22:18:37.097Z,23.10
2023-06-17T22:21:17.385Z,23.06
2023-06-17T22:23:57.764Z,23.03
2023-06-17T22:26:39.627Z,23.00
2023-06-17T22:29:19.943Z,22.98
2023-06-17T22:32:00.310Z,22.96
2023-06-17T22:34:40.700Z,22.96
2023-06-17T22:37:21.035Z,22.95
2023-06-17T22:40:01.241Z,22.96
2023-06-17T22:42:41.664Z,22.95
2023-06-17T22:45:22.144Z,22.92
2023-06-17T22:48:03.975Z,22.89
2023-06-17T22:50:44.194Z,22.88
2023-06-17T22:53:24.791Z,22.85
2023-06-17T22:56:05.905Z,22.84
2023-06-17T22:58:46.538Z,22.84
2023-06-17T23:01:27.291Z,22.83
2023-06-17T23:04:07.439Z,22.85
2023-06-17T23:06:47.697Z,22.85
2023-06-17T23:09:28.038Z,22.87
2023-06-17T23:12:09.268Z,22.90
2023-06-17T23:14:49.745Z,22.93
2023-06-17T23:17:30.128Z,22.94
2023-06-17T23:20:10.686Z,22.98
2023-06-17T23:22:51.730Z,22.99
2023-06-17T23:25:32.891Z,22.98
2023-06-17T23:28:13.404Z,23.00
2023-06-17T23:30:54.160Z,23.01
2023-06-17T23:33:35.527Z,23.01
2023-06-17T23:36:15.652Z,23.01
2023-06-17T23:38:58.415Z,23.02
2023-06-17T23:41:39.024Z,23.00
2023-06-17T23:44:20.387Z,22.99
2023-06-17T23:47:04.469Z,23.01
2023-06-17T23:49:45.962Z,23.02
2023-06-17T23:52:26.309Z,23.00
2023-06-17T23:55:07.286Z,22.97
2023-06-17T23:57:47.882Z,22.96
